Meeker, CO (81641)

3:24 PM MDT on August 03, 2015 (GMT -0600)
Meeker | | Change Station
CLOSE
Current Station
Airport
Location: Meeker,
Elevation: 6421 ft
Nearby Weather Stations

Elev 6421 ft 40.05 °N, 107.89 °W | Updated 31 minutes ago

Partly Cloudy
Partly Cloudy
77 °F
Feels Like 77 °F
N
16
Wind Variable Wind from WSW
Gusts 25 mph

Today
High -- | Low -- °F
--% Chance of Precip.
Yesterday
High -- | Low -- °F
Precip. -- in
6:11 AM 8:23 PM
Waning Gibbous, 84% visible
Pressure 29.87 in
Visibility 10.0 miles
Clouds Mostly Cloudy 6000 ft
Mostly Cloudy 7500 ft
Overcast 10000 ft
Dew Point 48 °F
Humidity 36%
Rainfall 0.03 in
Snow Depth Not available.
UV 3 out of 12
Pollen 4.90 out of 12
Air Quality Not available.
Flu Activity Not available.
METAR KEEO 032053Z AUTO 24014G22KT 10SM BKN060 BKN075 OVC100 25/09 A3014 RMK AO2 LTG DSNT N SLP114 T02500089 56013

More Conditions Fewer Conditions

Pressure 29.87 in
Visibility 10.0 miles
Clouds Mostly Cloudy 6000 ft
Mostly Cloudy 7500 ft
Overcast 10000 ft
Dew Point 48 °F
Humidity 36%
Rainfall 0.03 in
Snow Depth Not available.
UV 3 out of 12
Pollen 4.90 out of 12
Air Quality Not available.
Flu Activity Not available.
METAR KEEO 032053Z AUTO 24014G22KT 10SM BKN060 BKN075 OVC100 25/09 A3014 RMK AO2 LTG DSNT N SLP114 T02500089 56013

More Conditions Fewer Conditions

10-Day Weather Forecast

×

Almanac

Astronomy

Aug. 03, 2015 Rise Set
Actual Time
Civil Twilight
Nautical Twilight
Astronomical Twilight
Moon
Length of Visible Light
Length of Day
Tomorrow will be .
, % of the Moon is Illuminated

Today's Extremes

State Highs State Lows

Community

WunderPhotos

Upload Photos

1,843,770 photos uploaded!

WunderBlogs® & News

Nearby

Air Quality

  Air Quality AQ Index Pollutant
Not available.

Snow Depth

Station Depth Elevation

Earthquake Activity

City Distance Mag. Time & Date
Minimum magnitude displayed is 2.5.

Coastal Water Temperatures

Place Temperature

Stations

Nearby Weather Stations

Station Location Temp. Windchill Dew Point Humidity Wind Precip. Elev Updated Type